Time;durP1;ratioP1;P1;durP2;ratioP2;P2;SDS_P1;SDS_P2;PMS_P1;PMS_P2;Temp;Humidity;BMP_temperature;BMP_pressure;BME280_temperature;BME280_humidity;BME280_pressure;Samples;Min_cycle;Max_cycle;Signal;HPM_P1;HPM_P2
2022/05/11 00:00:14;;;;;;;17.33;8.63;;;;;;;16.37;58.02;101199.50;5034024;28;20100;-58
2022/05/11 00:02:40;;;;;;;15.45;8.43;;;;;;;16.37;58.38;101201.50;5049434;28;20037;-58
2022/05/11 00:05:09;;;;;;;16.38;8.50;;;;;;;16.37;58.53;101193.13;5039367;28;20021;-58
2022/05/11 00:07:34;;;;;;;16.42;8.23;;;;;;;16.37;58.24;101201.50;5049527;28;20056;-58
2022/05/11 00:10:00;;;;;;;15.82;8.10;;;;;;;16.36;58.44;101197.06;5033879;28;20500;-58
2022/05/11 00:12:26;;;;;;;17.42;8.60;;;;;;;16.37;58.61;101198.72;5041366;28;20038;-58
2022/05/11 00:14:51;;;;;;;16.88;8.48;;;;;;;16.33;59.28;101192.16;5045425;28;20418;-60
2022/05/11 00:17:17;;;;;;;16.80;8.38;;;;;;;16.34;59.63;101188.22;5042491;28;20075;-56
2022/05/11 00:19:42;;;;;;;17.80;8.40;;;;;;;16.34;59.46;101185.41;5043264;28;20024;-57
2022/05/11 00:22:07;;;;;;;15.27;7.85;;;;;;;16.30;59.97;101181.66;5047568;28;20044;-57
2022/05/11 00:24:33;;;;;;;16.40;8.45;;;;;;;16.30;60.38;101184.44;5035911;28;20029;-57
2022/05/11 00:26:58;;;;;;;14.07;7.90;;;;;;;16.28;59.92;101178.41;5044173;28;20487;-57
2022/05/11 00:29:23;;;;;;;16.17;8.40;;;;;;;16.27;59.91;101173.97;5041864;28;20059;-58
2022/05/11 00:31:49;;;;;;;13.73;7.70;;;;;;;16.24;59.65;101167.09;5037333;28;20075;-57
2022/05/11 00:34:14;;;;;;;16.42;8.50;;;;;;;16.28;59.05;101170.81;5042606;28;20082;-58
2022/05/11 00:36:39;;;;;;;15.55;8.27;;;;;;;16.26;59.16;101170.34;5036866;28;20499;-58
2022/05/11 00:39:05;;;;;;;16.67;8.02;;;;;;;16.26;59.09;101175.94;5041822;28;20112;-59
2022/05/11 00:41:30;;;;;;;16.20;8.38;;;;;;;16.22;59.39;101167.41;5034712;28;20090;-58
2022/05/11 00:43:58;;;;;;;16.65;8.10;;;;;;;16.16;58.89;101153.97;5042040;28;20115;-58
2022/05/11 00:46:35;;;;;;;15.75;8.55;;;;;;;16.19;59.08;101162.53;5049981;28;20030;-57
2022/05/11 00:51:52;;;;;;;16.50;8.32;;;;;;;16.17;59.24;101150.03;5042360;28;20554;-58
2022/05/11 00:54:20;;;;;;;15.48;8.45;;;;;;;16.18;58.68;101149.72;5044382;28;20053;-58
2022/05/11 00:56:50;;;;;;;14.52;7.57;;;;;;;16.20;58.85;101149.38;5051061;28;20056;-58
2022/05/11 00:59:25;;;;;;;17.13;7.88;;;;;;;16.14;58.56;101133.97;5053196;28;20059;-58
2022/05/11 01:01:51;;;;;;;15.98;7.30;;;;;;;16.18;58.48;101146.94;5043754;28;20095;-58
2022/05/11 01:04:19;;;;;;;14.35;7.00;;;;;;;16.16;58.57;101145.59;5039794;28;20477;-58
2022/05/11 01:06:45;;;;;;;16.85;7.78;;;;;;;16.15;58.71;101142.00;5032547;28;20104;-58
2022/05/11 01:09:12;;;;;;;18.55;7.70;;;;;;;16.16;58.25;101137.22;5033241;28;20113;-58
2022/05/11 01:11:45;;;;;;;15.98;7.65;;;;;;;16.17;58.03;101138.88;5033115;28;20037;-59
2022/05/11 01:14:14;;;;;;;19.52;8.10;;;;;;;16.17;58.20;101148.06;5033128;28;20034;-58
2022/05/11 01:16:40;;;;;;;15.43;7.35;;;;;;;16.16;58.06;101135.28;5032625;28;20112;-56
2022/05/11 01:19:07;;;;;;;17.30;7.50;;;;;;;16.17;57.91;101136.06;5042297;28;20045;-58
2022/05/11 01:21:46;;;;;;;16.75;7.38;;;;;;;16.13;57.77;101124.78;5032688;28;20050;-56
2022/05/11 01:24:42;;;;;;;15.68;7.50;;;;;;;16.19;57.63;101126.25;5045430;28;20033;-57
2022/05/11 01:27:25;;;;;;;14.20;7.25;;;;;;;16.17;58.08;101116.53;5024245;28;20106;-57
2022/05/11 01:29:51;;;;;;;15.95;7.22;;;;;;;16.14;58.40;101118.03;5042885;28;20461;-57
2022/05/11 01:32:20;;;;;;;16.02;7.65;;;;;;;16.12;58.98;101127.91;5043281;28;20031;-59
2022/05/11 01:34:50;;;;;;;15.85;7.40;;;;;;;16.09;58.27;101118.25;5039715;28;20029;-58
2022/05/11 01:37:16;;;;;;;16.08;7.15;;;;;;;16.13;58.42;101124.78;5043599;28;20120;-57
2022/05/11 01:39:44;;;;;;;16.75;7.47;;;;;;;16.18;58.66;101124.59;5048185;28;20028;-57
2022/05/11 01:42:11;;;;;;;13.88;7.15;;;;;;;16.17;58.69;101127.69;5052354;28;20025;-58
2022/05/11 01:44:36;;;;;;;13.10;7.22;;;;;;;16.16;58.83;101123.28;5044699;28;20067;-58
2022/05/11 01:47:01;;;;;;;14.50;8.13;;;;;;;16.16;58.85;101121.31;5047073;28;20386;-57
2022/05/11 01:49:27;;;;;;;17.35;7.63;;;;;;;16.16;58.62;101112.09;5047007;28;20028;-57
2022/05/11 01:51:53;;;;;;;11.07;6.95;;;;;;;16.15;58.83;101116.09;5042411;28;20476;-57
2022/05/11 01:54:19;;;;;;;15.43;7.70;;;;;;;16.17;58.90;101109.00;5049656;28;20025;-57
2022/05/11 01:56:44;;;;;;;15.35;7.30;;;;;;;16.12;58.63;101109.19;5044317;28;20041;-57
2022/05/11 01:59:10;;;;;;;14.07;7.45;;;;;;;16.12;58.39;101102.78;5041495;28;20455;-58
2022/05/11 02:01:39;;;;;;;13.40;7.25;;;;;;;16.09;58.73;101103.47;5044351;28;20446;-58
2022/05/11 02:07:49;;;;;;;11.85;6.97;;;;;;;16.03;59.03;101100.88;5048464;28;20075;-58
2022/05/11 02:09:34;;;;;;;;;;;;;;;16.10;58.09;101117.09;5032302;28;20407;-58
2022/05/11 02:11:59;;;;;;;15.30;7.10;;;;;;;16.01;59.15;101105.16;5041771;28;20011;-58
2022/05/11 02:14:25;;;;;;;14.93;7.28;;;;;;;15.98;59.46;101103.03;5034771;28;20037;-58
2022/05/11 02:16:50;;;;;;;12.65;7.50;;;;;;;15.95;59.45;101106.50;5044986;28;20037;-58
2022/05/11 02:19:15;;;;;;;14.68;7.40;;;;;;;15.95;59.31;101098.97;5056031;28;20083;-57
2022/05/11 02:21:40;;;;;;;14.50;7.85;;;;;;;15.89;59.84;101095.53;5045281;28;20034;-57
2022/05/11 02:24:06;;;;;;;16.15;7.47;;;;;;;15.87;59.82;101092.25;5035492;28;20036;-57
2022/05/11 02:26:33;;;;;;;14.38;7.43;;;;;;;15.75;59.98;101076.22;5057260;22;20053;-56
2022/05/11 02:28:58;;;;;;;15.13;7.47;;;;;;;15.84;59.85;101092.94;5054710;28;20033;-57
2022/05/11 02:31:24;;;;;;;14.90;7.40;;;;;;;15.84;60.02;101089.34;5046123;28;20052;-59
2022/05/11 02:33:49;;;;;;;15.63;7.78;;;;;;;15.81;60.49;101090.81;5036078;28;20017;-56
2022/05/11 02:36:14;;;;;;;15.32;7.32;;;;;;;15.82;60.28;101088.81;5049899;28;20040;-57
2022/05/11 02:38:42;;;;;;;15.43;7.60;;;;;;;15.78;60.30;101090.63;5040021;28;20377;-56
2022/05/11 02:41:07;;;;;;;15.75;8.00;;;;;;;15.80;60.56;101086.38;5036326;28;20418;-56
2022/05/11 02:43:32;;;;;;;15.77;8.00;;;;;;;15.81;60.63;101093.59;5041933;28;20037;-56
2022/05/11 02:45:57;;;;;;;16.48;7.90;;;;;;;15.81;60.53;101089.97;5050051;28;20033;-56
2022/05/11 02:48:24;;;;;;;16.67;8.23;;;;;;;15.80;60.41;101093.91;5038641;28;20310;-55
2022/05/11 02:50:55;;;;;;;17.20;7.72;;;;;;;15.82;60.60;101094.38;5063594;28;20029;-55
2022/05/11 02:53:23;;;;;;;15.70;8.00;;;;;;;15.79;60.63;101093.09;5038182;28;20025;-57
2022/05/11 02:55:50;;;;;;;16.90;7.90;;;;;;;15.74;60.61;101082.13;5038613;28;20079;-54
2022/05/11 02:58:18;;;;;;;15.63;7.90;;;;;;;15.78;60.71;101094.25;5037016;28;20075;-55
2022/05/11 03:00:47;;;;;;;19.13;8.00;;;;;;;15.73;60.54;101086.06;5037789;28;20037;-55
2022/05/11 03:03:14;;;;;;;16.23;7.82;;;;;;;15.71;60.74;101074.44;5053162;28;20025;-55
2022/05/11 03:05:40;;;;;;;14.52;7.75;;;;;;;15.76;60.65;101088.19;5052568;28;20541;-57
2022/05/11 03:08:06;;;;;;;14.57;7.68;;;;;;;15.75;60.73;101083.75;5047461;28;20094;-53
2022/05/11 03:10:31;;;;;;;15.32;7.70;;;;;;;15.75;60.74;101084.59;5039700;28;20029;-54
2022/05/11 03:12:57;;;;;;;14.70;7.68;;;;;;;15.73;60.74;101078.53;5041299;28;20389;-56
2022/05/11 03:15:22;;;;;;;15.60;7.50;;;;;;;15.74;60.48;101077.38;5032823;28;20033;-54
2022/05/11 03:17:48;;;;;;;16.55;7.82;;;;;;;15.75;60.35;101072.59;5041177;28;20503;-54
2022/05/11 03:20:14;;;;;;;16.20;7.85;;;;;;;15.74;60.89;101069.00;5042070;28;20086;-54
2022/05/11 03:22:39;;;;;;;15.93;8.15;;;;;;;15.69;60.70;101060.81;5036922;28;20388;-54
2022/05/11 03:25:06;;;;;;;16.88;8.18;;;;;;;15.70;60.90;101065.25;5042416;28;20021;-56
2022/05/11 03:27:31;;;;;;;15.65;7.70;;;;;;;15.68;61.00;101061.16;5033119;28;20488;-55
2022/05/11 03:29:56;;;;;;;16.13;8.00;;;;;;;15.67;61.01;101051.97;5032532;28;20025;-57
2022/05/11 03:35:08;;;;;;;16.77;7.78;;;;;;;15.66;60.96;101058.72;5033354;28;20041;-56
2022/05/11 03:37:34;;;;;;;18.92;8.30;;;;;;;15.65;60.85;101053.44;5032109;28;20026;-55
2022/05/11 03:40:00;;;;;;;14.25;7.65;;;;;;;15.62;61.17;101054.94;5031445;28;20373;-55
2022/05/11 03:42:30;;;;;;;15.80;7.97;;;;;;;15.57;61.18;101044.81;5032671;28;20349;-56
2022/05/11 03:45:05;;;;;;;14.65;7.97;;;;;;;15.56;61.10;101036.78;5033434;28;20457;-55
2022/05/11 03:47:30;;;;;;;15.52;8.30;;;;;;;15.62;61.21;101043.00;5022646;28;20033;-55
2022/05/11 03:49:55;;;;;;;17.38;8.20;;;;;;;15.62;61.27;101046.59;5032994;28;20360;-57
2022/05/11 03:52:22;;;;;;;16.20;8.05;;;;;;;15.63;60.85;101044.63;5031801;28;20116;-56
2022/05/11 03:54:48;;;;;;;17.10;8.35;;;;;;;15.60;61.22;101038.56;5033123;28;20449;-58
2022/05/11 03:57:13;;;;;;;16.55;8.40;;;;;;;15.57;61.15;101035.63;5031442;28;20026;-56
2022/05/11 03:59:38;;;;;;;15.10;8.13;;;;;;;15.55;61.44;101035.94;5032297;28;20030;-55
2022/05/11 04:02:04;;;;;;;16.10;8.60;;;;;;;15.55;61.47;101035.94;5032297;28;20099;-57
2022/05/11 04:04:29;;;;;;;16.48;8.75;;;;;;;15.55;61.63;101040.72;5032299;28;20033;-55
2022/05/11 04:06:54;;;;;;;16.67;8.48;;;;;;;15.55;62.01;101037.94;5032545;28;20052;-55
2022/05/11 04:09:20;;;;;;;18.42;9.68;;;;;;;15.55;62.10;101038.75;5031570;28;20038;-55
2022/05/11 04:11:45;;;;;;;15.48;8.32;;;;;;;15.54;61.69;101034.31;5031936;28;20388;-56
2022/05/11 04:14:11;;;;;;;17.52;9.00;;;;;;;15.55;61.53;101043.50;5032918;28;20026;-56
2022/05/11 04:16:36;;;;;;;15.65;8.60;;;;;;;15.52;61.71;101039.44;5030044;28;20040;-56
2022/05/11 04:19:02;;;;;;;15.43;8.38;;;;;;;15.51;61.82;101037.78;5032511;28;20036;-56
2022/05/11 04:21:27;;;;;;;17.38;8.80;;;;;;;15.52;61.57;101033.00;5032210;28;20052;-56
2022/05/11 04:23:52;;;;;;;15.27;8.57;;;;;;;15.51;61.90;101036.94;5032330;28;20040;-55
2022/05/11 04:26:18;;;;;;;16.25;8.60;;;;;;;15.51;62.01;101036.94;5031119;28;20159;-56
2022/05/11 04:28:43;;;;;;;16.75;8.80;;;;;;;15.52;62.23;101030.22;5032448;28;20025;-56
2022/05/11 04:31:11;;;;;;;14.35;8.10;;;;;;;15.49;61.81;101017.78;5030961;28;20033;-55
2022/05/11 04:33:36;;;;;;;16.55;8.40;;;;;;;15.55;61.95;101029.56;5031353;28;20164;-56
2022/05/11 04:36:03;;;;;;;15.52;7.95;;;;;;;15.57;61.85;101032.84;5031409;28;20072;-60
2022/05/11 04:38:29;;;;;;;13.93;7.93;;;;;;;15.56;61.88;101025.63;5030412;28;20017;-55
2022/05/11 04:40:55;;;;;;;16.15;8.23;;;;;;;15.57;61.80;101025.28;5030969;28;20405;-54
2022/05/11 04:43:20;;;;;;;17.50;8.30;;;;;;;15.60;62.17;101021.00;5031367;28;20111;-55
2022/05/11 04:45:46;;;;;;;15.15;8.43;;;;;;;15.63;61.62;101025.91;5031726;28;20030;-54
2022/05/11 04:48:13;;;;;;;16.05;8.50;;;;;;;15.58;61.62;101021.34;5030230;28;20108;-56
2022/05/11 04:50:42;;;;;;;14.98;7.95;;;;;;;15.65;61.77;101031.97;5032052;28;20040;-56
2022/05/11 04:53:08;;;;;;;17.17;8.65;;;;;;;15.67;61.76;101032.47;5030661;28;20032;-55
2022/05/11 04:55:34;;;;;;;14.65;8.00;;;;;;;15.71;61.80;101027.03;5015398;28;20433;-55
2022/05/11 04:58:00;;;;;;;15.52;7.97;;;;;;;15.74;61.53;101032.75;5031393;28;20029;-58
2022/05/11 05:00:25;;;;;;;14.38;7.80;;;;;;;15.78;61.14;101026.47;5032045;28;20029;-56
2022/05/11 05:02:51;;;;;;;13.45;7.47;;;;;;;15.83;61.10;101037.44;5031112;28;20029;-57
2022/05/11 05:05:18;;;;;;;15.77;7.78;;;;;;;15.84;61.39;101027.97;5030811;28;20025;-55
2022/05/11 05:07:43;;;;;;;13.15;7.55;;;;;;;15.85;61.10;101027.63;5030919;28;20433;-55
2022/05/11 05:10:12;;;;;;;15.75;7.90;;;;;;;15.88;61.46;101037.28;5031207;28;20044;-56
2022/05/11 05:12:38;;;;;;;14.68;8.07;;;;;;;15.89;61.32;101034.16;5030538;28;20052;-57
2022/05/11 05:15:04;;;;;;;18.13;7.90;;;;;;;15.93;61.22;101030.69;5030737;28;20094;-57
2022/05/11 05:17:30;;;;;;;22.30;8.38;;;;;;;15.96;61.17;101030.84;5030559;28;20482;-56
2022/05/11 05:19:55;;;;;;;14.32;7.95;;;;;;;16.02;61.48;101034.22;5031435;28;20502;-57
2022/05/11 05:22:21;;;;;;;17.77;8.38;;;;;;;16.05;61.10;101037.19;5031454;28;20526;-56
2022/05/11 05:24:46;;;;;;;14.65;8.27;;;;;;;16.14;60.83;101045.47;5027674;28;20026;-58
2022/05/11 05:27:17;;;;;;;14.57;8.23;;;;;;;16.17;60.59;101035.59;5024773;28;20038;-54
2022/05/11 05:32:32;;;;;;;16.77;8.65;;;;;;;16.33;60.20;101045.03;5030907;28;20052;-57
2022/05/11 05:35:00;;;;;;;18.83;8.43;;;;;;;16.38;59.90;101046.78;5030429;28;20082;-56
2022/05/11 05:37:25;;;;;;;14.95;7.90;;;;;;;16.42;59.36;101047.72;5031202;28;20041;-56
2022/05/11 05:39:50;;;;;;;15.20;7.88;;;;;;;16.43;59.15;101045.75;5030501;28;20116;-57
2022/05/11 05:42:21;;;;;;;15.20;7.65;;;;;;;16.41;59.34;101046.09;5027893;28;20034;-55
2022/05/11 05:44:46;;;;;;;13.82;8.00;;;;;;;16.43;59.21;101045.75;5027367;28;20033;-56
2022/05/11 05:47:13;;;;;;;18.00;8.60;;;;;;;16.39;59.29;101048.41;5028057;28;20032;-55
2022/05/11 05:49:39;;;;;;;15.40;8.07;;;;;;;16.44;59.52;101045.41;5029845;28;20034;-56
2022/05/11 05:52:04;;;;;;;15.95;8.38;;;;;;;16.48;59.39;101056.72;5029202;28;20087;-55
2022/05/11 05:54:30;;;;;;;16.00;8.27;;;;;;;16.52;59.03;101052.91;5034110;28;20040;-56
2022/05/11 05:56:56;;;;;;;16.23;8.60;;;;;;;16.51;59.25;101053.25;5034683;28;20034;-55
2022/05/11 05:59:22;;;;;;;16.67;8.90;;;;;;;16.54;59.61;101060.91;5027218;28;20037;-56
2022/05/11 06:01:47;;;;;;;18.20;8.20;;;;;;;16.58;59.32;101058.28;5024535;28;20041;-56
2022/05/11 06:04:12;;;;;;;17.95;9.20;;;;;;;16.56;59.31;101058.63;5035555;28;20386;-57
2022/05/11 06:06:37;;;;;;;19.92;9.65;;;;;;;16.56;59.52;101057.81;5035574;28;20025;-56
2022/05/11 06:09:04;;;;;;;20.90;9.20;;;;;;;16.59;59.68;101062.69;5035836;28;20524;-56
2022/05/11 06:11:29;;;;;;;17.92;9.00;;;;;;;16.63;59.35;101061.66;5034847;28;20117;-55
2022/05/11 06:13:55;;;;;;;16.60;8.63;;;;;;;16.63;59.10;101063.66;5031461;28;20067;-55
2022/05/11 06:16:21;;;;;;;16.08;8.70;;;;;;;16.62;58.80;101068.44;5032223;28;20037;-55
2022/05/11 06:18:46;;;;;;;15.07;8.13;;;;;;;16.60;58.05;101047.56;5033133;28;20575;-55
2022/05/11 06:21:14;;;;;;;15.88;8.88;;;;;;;16.62;57.69;101056.44;5031531;28;20076;-56
2022/05/11 06:23:40;;;;;;;16.02;8.00;;;;;;;16.62;57.49;101057.25;5033146;28;20468;-56
2022/05/11 06:26:06;;;;;;;15.55;8.35;;;;;;;16.66;57.67;101051.81;5032464;28;20132;-57
2022/05/11 06:28:34;;;;;;;14.15;7.93;;;;;;;16.72;56.70;101044.84;5033077;28;20255;-56
2022/05/11 06:31:00;;;;;;;16.08;8.00;;;;;;;16.74;56.41;101034.13;5031126;28;20488;-55
2022/05/11 06:33:25;;;;;;;16.75;8.30;;;;;;;16.77;56.36;101036.22;5032922;28;20030;-56
2022/05/11 06:35:50;;;;;;;17.85;8.70;;;;;;;16.83;55.78;101040.47;5033740;28;20105;-56
2022/05/11 06:38:15;;;;;;;16.05;7.85;;;;;;;16.88;54.87;101033.00;5031718;28;20048;-56
2022/05/11 06:40:41;;;;;;;14.30;7.45;;;;;;;16.97;54.83;101037.38;5033411;28;20105;-56
2022/05/11 06:43:06;;;;;;;15.48;8.00;;;;;;;17.04;54.07;101033.19;5031710;28;20132;-56
2022/05/11 06:45:32;;;;;;;12.75;7.70;;;;;;;17.09;53.95;101027.41;5032940;28;20400;-56
2022/05/11 06:47:58;;;;;;;14.48;7.80;;;;;;;17.13;53.95;101034.75;5032792;28;20040;-56
2022/05/11 06:50:25;;;;;;;14.38;7.97;;;;;;;17.21;53.69;101029.38;5033222;28;20033;-56
2022/05/11 06:52:51;;;;;;;17.02;7.80;;;;;;;17.32;53.77;101027.78;5032949;28;20370;-56
2022/05/11 07:00:45;;;;;;;;;;;;;;;17.83;52.56;101038.63;5033411;28;20618;-53
2022/05/11 07:03:11;;;;;;;15.10;7.88;;;;;;;17.89;51.64;101039.19;5032296;28;19943;-55
2022/05/11 07:05:36;;;;;;;17.20;8.05;;;;;;;17.98;51.77;101033.47;5032670;28;20112;-55
2022/05/11 07:08:01;;;;;;;13.25;7.43;;;;;;;18.03;51.27;101038.84;5032733;28;20495;-57
2022/05/11 07:10:27;;;;;;;15.93;8.00;;;;;;;18.01;51.00;101028.00;5032497;28;20068;-56
2022/05/11 07:12:52;;;;;;;16.58;7.97;;;;;;;18.03;50.82;101038.84;5032451;28;20487;-54
2022/05/11 07:15:21;;;;;;;17.30;8.20;;;;;;;18.01;50.82;101030.78;5032992;28;20026;-50
2022/05/11 07:17:49;;;;;;;15.23;7.82;;;;;;;17.95;49.65;101022.97;5032522;28;20032;-56
2022/05/11 07:20:27;;;;;;;15.95;7.55;;;;;;;17.96;49.54;101028.25;5032510;28;20040;-55
2022/05/11 07:22:53;;;;;;;16.05;7.80;;;;;;;18.03;49.41;101039.66;5032483;28;20037;-56
2022/05/11 07:25:21;;;;;;;14.55;7.72;;;;;;;18.07;48.92;101031.38;5032024;28;20048;-54
2022/05/11 07:27:47;;;;;;;16.02;7.88;;;;;;;18.02;49.42;101035.22;5032323;28;20089;-55
2022/05/11 07:30:17;;;;;;;15.98;7.93;;;;;;;18.05;49.66;101033.69;5030386;28;20535;-55
2022/05/11 07:32:42;;;;;;;15.20;7.57;;;;;;;18.14;50.03;101031.56;5030917;28;20037;-56
2022/05/11 07:35:08;;;;;;;17.20;8.10;;;;;;;18.14;49.69;101033.56;5032098;28;20450;-55
2022/05/11 07:37:33;;;;;;;17.23;7.80;;;;;;;18.19;50.00;101027.72;5032068;28;20038;-56
2022/05/11 07:40:00;;;;;;;18.67;8.55;;;;;;;18.33;50.89;101030.97;5030874;28;20049;-55
2022/05/11 07:42:25;;;;;;;17.80;8.32;;;;;;;18.47;50.28;101036.16;5032585;28;20037;-50
2022/05/11 07:44:51;;;;;;;16.42;8.10;;;;;;;18.45;51.54;101038.50;5032283;28;20099;-58
2022/05/11 07:47:16;;;;;;;17.60;8.10;;;;;;;18.40;50.24;101038.75;5031920;28;20044;-53
2022/05/11 07:49:41;;;;;;;15.57;8.40;;;;;;;18.40;51.05;101038.75;5031767;28;20034;-58
2022/05/11 07:52:08;;;;;;;18.80;8.45;;;;;;;18.46;50.00;101030.94;5031905;28;20174;-56
2022/05/11 07:54:33;;;;;;;19.25;8.70;;;;;;;18.41;50.46;101037.59;5031927;28;20218;-55
2022/05/11 07:59:59;;;;;;;;;;;;;;;18.50;49.88;101037.44;5032453;28;20048;-56
2022/05/11 08:02:29;;;;;;;16.45;8.73;;;;;;;18.42;50.09;101046.81;5031900;28;20007;-56
2022/05/11 08:05:01;;;;;;;18.05;8.40;;;;;;;18.32;49.72;101040.53;5031698;28;20445;-55
2022/05/11 08:07:34;;;;;;;16.80;8.60;;;;;;;18.30;49.66;101047.66;5031598;28;20041;-55
2022/05/11 08:10:00;;;;;;;17.35;8.05;;;;;;;18.38;49.48;101044.69;5031693;28;20092;-54
2022/05/11 08:12:26;;;;;;;15.63;7.90;;;;;;;18.55;49.15;101037.19;5023615;28;20053;-54
2022/05/11 08:14:52;;;;;;;16.85;8.15;;;;;;;18.62;48.27;101042.16;5014236;28;20080;-56
2022/05/11 08:17:26;;;;;;;16.95;8.23;;;;;;;18.62;48.00;101039.34;5013906;28;20018;-57
2022/05/11 08:19:51;;;;;;;15.15;7.53;;;;;;;18.70;47.09;101038.41;5013729;28;20404;-56
2022/05/11 08:22:18;;;;;;;19.05;8.02;;;;;;;18.78;47.46;101031.84;5013836;28;20036;-57
2022/05/11 08:24:43;;;;;;;15.40;7.63;;;;;;;18.88;46.73;101032.50;5013856;28;20061;-57
2022/05/11 08:27:10;;;;;;;15.95;7.95;;;;;;;18.90;46.75;101039.34;5013520;28;20116;-56
2022/05/11 08:35:03;;;;;;;;;;;;;;;19.23;46.14;101035.44;5014463;28;20048;-56
2022/05/11 08:37:29;;;;;;;20.60;7.82;;;;;;;19.15;45.83;101028.00;5013224;28;19909;-57
2022/05/11 08:39:54;;;;;;;16.55;7.93;;;;;;;19.29;45.52;101024.75;5013339;28;20457;-56
2022/05/11 08:42:20;;;;;;;15.90;7.63;;;;;;;19.25;45.18;101035.09;5013234;28;20038;-56
2022/05/11 08:44:48;;;;;;;15.57;7.30;;;;;;;19.25;45.56;101021.88;5013582;28;20022;-56
2022/05/11 08:47:45;;;;;;;19.70;7.82;;;;;;;19.27;45.57;101027.94;5013277;28;20167;-56
2022/05/11 08:50:26;;;;;;;96.72;19.38;;;;;;;19.14;46.09;101013.19;5009573;28;20042;-56
2022/05/11 08:53:15;;;;;;;18.38;8.30;;;;;;;19.42;45.14;101031.91;5013333;28;20097;-56
2022/05/11 08:55:47;;;;;;;17.42;8.30;;;;;;;19.25;45.11;101027.47;5013413;28;20342;-56
2022/05/11 08:58:21;;;;;;;16.40;7.78;;;;;;;19.27;45.55;101036.34;5013484;28;20210;-56
2022/05/11 09:00:48;;;;;;;16.77;8.00;;;;;;;19.43;45.44;101033.56;5013662;28;20504;-57
2022/05/11 09:03:27;;;;;;;16.88;8.25;;;;;;;19.45;45.29;101027.56;5013100;28;20160;-55
2022/05/11 09:05:53;;;;;;;18.30;8.65;;;;;;;19.56;45.63;101019.41;5013433;28;20044;-56
2022/05/11 09:08:18;;;;;;;18.83;8.20;;;;;;;19.63;45.36;101028.00;5013330;28;20037;-57
2022/05/11 09:10:44;;;;;;;20.20;8.32;;;;;;;19.60;45.09;101023.13;5013043;28;20469;-57
2022/05/11 09:13:13;;;;;;;17.63;8.38;;;;;;;19.58;45.63;101019.88;5013050;28;20108;-56
2022/05/11 09:15:51;;;;;;;22.35;10.57;;;;;;;19.75;45.98;101022.28;5011767;28;20041;-57
2022/05/11 09:18:16;;;;;;;20.10;8.98;;;;;;;19.85;45.43;101012.53;5013355;28;20029;-55
2022/05/11 09:20:46;;;;;;;19.15;9.07;;;;;;;19.92;45.12;101017.50;5013136;28;20384;-56
2022/05/11 09:23:12;;;;;;;18.63;8.75;;;;;;;19.94;44.63;101015.09;5013238;28;20025;-56
2022/05/11 09:25:53;;;;;;;19.52;9.23;;;;;;;20.03;45.14;101010.09;5012923;28;20073;-57
2022/05/11 09:28:25;;;;;;;20.77;8.82;;;;;;;19.99;45.29;101016.81;5012476;28;20030;-58
2022/05/11 09:31:05;;;;;;;16.33;8.32;;;;;;;19.92;45.50;101004.25;5012635;28;20021;-56
2022/05/11 09:33:33;;;;;;;18.50;8.40;;;;;;;19.97;45.21;101013.59;5013408;28;20033;-56
2022/05/11 09:36:02;;;;;;;19.50;8.68;;;;;;;20.01;45.02;101006.03;5011542;28;20026;-55
2022/05/11 09:38:38;;;;;;;16.30;8.18;;;;;;;19.91;45.15;101005.44;5012713;28;20018;-56
2022/05/11 09:41:18;;;;;;;18.45;8.25;;;;;;;20.03;45.23;101007.28;5012632;28;20026;-56
2022/05/11 09:43:50;;;;;;;17.83;7.93;;;;;;;20.10;44.88;101007.47;5012771;28;20076;-57
2022/05/11 09:46:15;;;;;;;20.15;9.52;;;;;;;20.12;44.84;101009.91;5014826;28;20078;-54
2022/05/11 09:48:58;;;;;;;18.67;8.77;;;;;;;20.31;45.29;100997.84;5030211;28;20037;-55
2022/05/11 09:51:29;;;;;;;19.25;8.88;;;;;;;20.43;44.74;100996.91;5020517;28;20291;-54
2022/05/11 09:54:02;;;;;;;17.70;8.82;;;;;;;20.37;44.28;101007.63;5017796;28;20484;-55
2022/05/11 09:56:27;;;;;;;18.33;8.55;;;;;;;20.36;44.69;100993.94;5020621;28;20085;-55
2022/05/11 09:58:53;;;;;;;18.97;8.17;;;;;;;20.38;45.00;100995.22;5019173;28;20028;-55
2022/05/11 10:01:27;;;;;;;16.98;7.97;;;;;;;20.48;45.08;100990.16;5020412;28;20544;-55
2022/05/11 10:03:59;;;;;;;15.55;8.13;;;;;;;20.55;44.68;101001.56;5020249;28;20441;-55
2022/05/11 10:06:29;;;;;;;18.48;8.48;;;;;;;20.66;45.08;101002.56;5020564;28;20380;-54
2022/05/11 10:08:57;;;;;;;19.35;8.02;;;;;;;20.71;44.31;100998.66;5020090;28;20477;-55
2022/05/11 10:11:50;;;;;;;19.92;8.23;;;;;;;20.72;44.43;100992.66;5020457;28;20036;-54
2022/05/11 10:23:09;;;;;;;18.27;8.93;;;;;;;21.11;43.85;100999.38;5025863;28;20048;-55
2022/05/11 10:25:43;;;;;;;20.17;8.48;;;;;;;21.09;43.27;100996.97;5019859;28;20091;-54
2022/05/11 10:28:33;;;;;;;15.82;8.10;;;;;;;21.13;43.20;101002.66;5012328;28;20037;-56
2022/05/11 10:31:29;;;;;;;17.92;8.60;;;;;;;20.96;43.66;100958.94;5010713;28;20121;-55
2022/05/11 10:34:21;;;;;;;17.05;8.50;;;;;;;21.02;44.09;100971.50;5019043;28;20033;-54
2022/05/11 10:36:59;;;;;;;20.25;8.73;;;;;;;21.11;44.00;100968.44;5031892;28;20080;-55
2022/05/11 10:39:52;;;;;;;18.42;8.73;;;;;;;21.27;43.84;100957.88;5033977;28;20045;-55
2022/05/11 10:42:36;;;;;;;17.42;8.38;;;;;;;21.33;43.58;100953.56;5036106;28;20037;-57
2022/05/11 10:45:31;;;;;;;17.80;8.48;;;;;;;21.49;43.48;100966.66;5035555;28;20078;-57
2022/05/11 10:48:08;;;;;;;17.95;8.85;;;;;;;21.48;43.27;100963.03;5011724;28;20045;-56
2022/05/11 10:50:51;;;;;;;22.60;9.10;;;;;;;21.44;43.63;100952.91;5035180;28;20037;-56
2022/05/11 10:53:34;;;;;;;20.35;9.18;;;;;;;21.46;43.41;100951.34;5035274;28;20029;-56
2022/05/11 10:56:23;;;;;;;18.70;8.80;;;;;;;21.37;43.23;100942.34;5035313;28;20032;-56
2022/05/11 10:59:25;;;;;;;18.95;8.90;;;;;;;21.41;43.26;100943.22;5035164;28;20112;-54
2022/05/11 11:01:56;;;;;;;16.65;8.32;;;;;;;21.47;43.60;100952.13;5035270;28;20017;-57
2022/05/11 11:04:45;;;;;;;19.30;8.82;;;;;;;21.51;43.29;100941.75;5034259;28;20116;-57
2022/05/11 11:07:47;;;;;;;17.08;8.50;;;;;;;21.63;43.25;100938.72;5035001;28;20021;-56
2022/05/11 11:10:26;;;;;;;18.27;8.60;;;;;;;21.68;43.89;100942.44;5034509;28;20025;-56
2022/05/11 11:13:15;;;;;;;18.08;9.05;;;;;;;21.63;42.73;100957.63;5034826;28;20022;-57
2022/05/11 11:15:44;;;;;;;19.27;8.68;;;;;;;21.60;42.79;100933.88;5034609;28;20033;-54
2022/05/11 11:18:13;;;;;;;19.08;8.82;;;;;;;21.70;43.03;100932.41;5030402;28;20036;-55
2022/05/11 11:20:42;;;;;;;19.17;8.82;;;;;;;21.68;43.14;100931.97;5034567;28;20055;-56
2022/05/11 11:23:27;;;;;;;18.02;8.90;;;;;;;21.83;43.24;100935.78;5015743;28;20041;-54
2022/05/11 11:26:04;;;;;;;17.33;8.38;;;;;;;21.96;42.86;100930.75;5034657;28;20045;-55
2022/05/11 11:28:34;;;;;;;19.70;8.90;;;;;;;22.08;42.29;100929.69;5034789;28;20029;-56
2022/05/11 11:30:59;;;;;;;18.27;8.30;;;;;;;22.12;42.00;100928.53;5034475;28;20029;-57
2022/05/11 11:33:26;;;;;;;17.97;8.20;;;;;;;22.21;42.19;100933.84;5034260;28;20033;-56
2022/05/11 11:35:58;;;;;;;18.58;8.43;;;;;;;22.25;42.06;100915.00;5034424;28;20350;-57
2022/05/11 11:38:38;;;;;;;19.17;8.70;;;;;;;22.35;41.62;100921.13;5034641;28;20348;-56
2022/05/11 11:41:22;;;;;;;18.27;8.70;;;;;;;22.36;41.47;100915.09;5034625;28;20035;-56
2022/05/11 11:43:50;;;;;;;17.48;8.82;;;;;;;22.34;41.04;100920.31;5033070;28;20055;-56
2022/05/11 11:46:44;;;;;;;18.45;8.15;;;;;;;22.37;41.03;100910.28;5034249;28;20047;-56
2022/05/11 11:49:18;;;;;;;;;;;;;;;22.44;40.50;100911.19;5034997;28;20021;-56
2022/05/11 11:51:53;;;;;;;17.75;7.55;;;;;;;22.31;40.45;100914.63;5034289;28;19913;-56
2022/05/11 11:54:37;;;;;;;16.13;7.78;;;;;;;22.34;40.99;100905.41;5033922;28;20044;-55
2022/05/11 11:57:25;;;;;;;15.75;7.78;;;;;;;22.39;39.60;100908.69;5033997;28;20025;-56
2022/05/11 12:00:05;;;;;;;19.05;8.07;;;;;;;22.44;40.70;100910.38;5034484;28;20040;-57
2022/05/11 12:02:42;;;;;;;15.57;7.82;;;;;;;22.53;40.60;100910.09;5034020;28;20025;-55